sensor_id;sensor_type;location;lat;lon;timestamp;temperature;humidity
62573;DHT22;48626;51.678;5.806;2023-04-03T00:00:53;2.90;99.90
62573;DHT22;48626;51.678;5.806;2023-04-03T00:03:19;2.80;99.90
62573;DHT22;48626;51.678;5.806;2023-04-03T00:05:46;2.90;99.90
62573;DHT22;48626;51.678;5.806;2023-04-03T00:08:11;2.90;99.90
62573;DHT22;48626;51.678;5.806;2023-04-03T00:10:37;2.90;99.90
62573;DHT22;48626;51.678;5.806;2023-04-03T00:13:05;3.00;99.90
62573;DHT22;48626;51.678;5.806;2023-04-03T00:15:31;3.00;99.90
62573;DHT22;48626;51.678;5.806;2023-04-03T00:17:57;3.00;99.90
62573;DHT22;48626;51.678;5.806;2023-04-03T00:20:23;3.00;99.90
62573;DHT22;48626;51.678;5.806;2023-04-03T00:22:49;3.00;99.90
62573;DHT22;48626;51.678;5.806;2023-04-03T00:25:15;2.90;99.90
62573;DHT22;48626;51.678;5.806;2023-04-03T00:27:41;2.90;99.90
62573;DHT22;48626;51.678;5.806;2023-04-03T00:30:08;2.90;99.90
62573;DHT22;48626;51.678;5.806;2023-04-03T00:32:35;2.90;99.90
62573;DHT22;48626;51.678;5.806;2023-04-03T00:35:01;2.90;99.90
62573;DHT22;48626;51.678;5.806;2023-04-03T00:37:26;2.80;99.90
62573;DHT22;48626;51.678;5.806;2023-04-03T00:39:52;2.80;99.90
62573;DHT22;48626;51.678;5.806;2023-04-03T00:42:17;2.90;99.90
62573;DHT22;48626;51.678;5.806;2023-04-03T00:47:12;2.90;99.90
62573;DHT22;48626;51.678;5.806;2023-04-03T00:49:39;2.90;99.90
62573;DHT22;48626;51.678;5.806;2023-04-03T00:52:10;2.90;99.90
62573;DHT22;48626;51.678;5.806;2023-04-03T00:54:38;2.90;99.90
62573;DHT22;48626;51.678;5.806;2023-04-03T00:57:06;2.90;99.90
62573;DHT22;48626;51.678;5.806;2023-04-03T00:59:36;2.90;99.90
62573;DHT22;48626;51.678;5.806;2023-04-03T01:02:03;2.90;99.90
62573;DHT22;48626;51.678;5.806;2023-04-03T01:04:38;2.90;99.90
62573;DHT22;48626;51.678;5.806;2023-04-03T01:07:08;3.00;99.90
62573;DHT22;48626;51.678;5.806;2023-04-03T01:09:35;2.90;99.90
62573;DHT22;48626;51.678;5.806;2023-04-03T01:12:33;2.90;99.90
62573;DHT22;48626;51.678;5.806;2023-04-03T01:15:10;2.90;99.90
62573;DHT22;48626;51.678;5.806;2023-04-03T01:25:26;2.80;99.90
62573;DHT22;48626;51.678;5.806;2023-04-03T01:27:52;2.80;99.90
62573;DHT22;48626;51.678;5.806;2023-04-03T01:30:20;2.70;99.90
62573;DHT22;48626;51.678;5.806;2023-04-03T01:32:46;2.70;99.90
62573;DHT22;48626;51.678;5.806;2023-04-03T01:35:12;2.70;99.90
62573;DHT22;48626;51.678;5.806;2023-04-03T01:37:39;2.70;99.90
62573;DHT22;48626;51.678;5.806;2023-04-03T01:40:05;2.60;99.90
62573;DHT22;48626;51.678;5.806;2023-04-03T01:42:31;2.60;99.90
62573;DHT22;48626;51.678;5.806;2023-04-03T01:44:56;2.60;99.90
62573;DHT22;48626;51.678;5.806;2023-04-03T01:47:22;2.60;99.90
62573;DHT22;48626;51.678;5.806;2023-04-03T01:49:48;2.60;99.90
62573;DHT22;48626;51.678;5.806;2023-04-03T01:52:14;2.50;99.90
62573;DHT22;48626;51.678;5.806;2023-04-03T01:54:39;2.50;99.90
62573;DHT22;48626;51.678;5.806;2023-04-03T01:57:05;2.50;99.90
62573;DHT22;48626;51.678;5.806;2023-04-03T01:59:31;2.50;99.90
62573;DHT22;48626;51.678;5.806;2023-04-03T02:01:57;2.40;99.90
62573;DHT22;48626;51.678;5.806;2023-04-03T02:04:23;2.40;99.90
62573;DHT22;48626;51.678;5.806;2023-04-03T02:06:48;2.40;99.90
62573;DHT22;48626;51.678;5.806;2023-04-03T02:09:14;2.40;99.90
62573;DHT22;48626;51.678;5.806;2023-04-03T02:11:40;2.30;99.90
62573;DHT22;48626;51.678;5.806;2023-04-03T02:14:06;2.30;99.90
62573;DHT22;48626;51.678;5.806;2023-04-03T02:16:31;2.30;99.90
62573;DHT22;48626;51.678;5.806;2023-04-03T02:18:57;2.40;99.90
62573;DHT22;48626;51.678;5.806;2023-04-03T02:21:23;2.30;99.90
62573;DHT22;48626;51.678;5.806;2023-04-03T02:23:49;2.30;99.90
62573;DHT22;48626;51.678;5.806;2023-04-03T02:26:15;2.30;99.90
62573;DHT22;48626;51.678;5.806;2023-04-03T02:28:41;2.30;99.90
62573;DHT22;48626;51.678;5.806;2023-04-03T02:31:08;2.30;99.90
62573;DHT22;48626;51.678;5.806;2023-04-03T02:33:35;2.30;99.90
62573;DHT22;48626;51.678;5.806;2023-04-03T02:36:03;2.30;99.90
62573;DHT22;48626;51.678;5.806;2023-04-03T02:38:29;2.30;99.90
62573;DHT22;48626;51.678;5.806;2023-04-03T02:41:00;2.30;99.90
62573;DHT22;48626;51.678;5.806;2023-04-03T02:43:26;2.40;99.90
62573;DHT22;48626;51.678;5.806;2023-04-03T02:45:52;2.30;99.90
62573;DHT22;48626;51.678;5.806;2023-04-03T02:48:18;2.40;99.90
62573;DHT22;48626;51.678;5.806;2023-04-03T02:50:43;2.30;99.90
62573;DHT22;48626;51.678;5.806;2023-04-03T02:53:09;2.30;99.90
62573;DHT22;48626;51.678;5.806;2023-04-03T02:55:35;2.30;99.90
62573;DHT22;48626;51.678;5.806;2023-04-03T02:58:01;2.30;99.90
62573;DHT22;48626;51.678;5.806;2023-04-03T03:00:26;2.30;99.90
62573;DHT22;48626;51.678;5.806;2023-04-03T03:02:52;2.30;99.90
62573;DHT22;48626;51.678;5.806;2023-04-03T03:05:17;2.30;99.90
62573;DHT22;48626;51.678;5.806;2023-04-03T03:07:43;2.30;99.90
62573;DHT22;48626;51.678;5.806;2023-04-03T03:10:09;2.30;99.90
62573;DHT22;48626;51.678;5.806;2023-04-03T03:12:35;2.30;99.90
62573;DHT22;48626;51.678;5.806;2023-04-03T03:15:00;2.30;99.90
62573;DHT22;48626;51.678;5.806;2023-04-03T03:17:26;2.30;99.90
62573;DHT22;48626;51.678;5.806;2023-04-03T03:19:52;2.20;99.90
62573;DHT22;48626;51.678;5.806;2023-04-03T03:22:19;2.20;99.90
62573;DHT22;48626;51.678;5.806;2023-04-03T03:24:44;2.20;99.90
62573;DHT22;48626;51.678;5.806;2023-04-03T03:27:10;2.20;99.90
62573;DHT22;48626;51.678;5.806;2023-04-03T03:29:37;2.20;99.90
62573;DHT22;48626;51.678;5.806;2023-04-03T03:32:03;2.20;99.90
62573;DHT22;48626;51.678;5.806;2023-04-03T03:34:29;2.20;99.90
62573;DHT22;48626;51.678;5.806;2023-04-03T03:36:55;2.20;99.90
62573;DHT22;48626;51.678;5.806;2023-04-03T03:39:21;2.10;99.90
62573;DHT22;48626;51.678;5.806;2023-04-03T03:41:47;2.10;99.90
62573;DHT22;48626;51.678;5.806;2023-04-03T03:44:14;2.10;99.90
62573;DHT22;48626;51.678;5.806;2023-04-03T03:46:40;2.20;99.90
62573;DHT22;48626;51.678;5.806;2023-04-03T03:49:06;2.10;99.90
62573;DHT22;48626;51.678;5.806;2023-04-03T03:51:32;2.10;99.90
62573;DHT22;48626;51.678;5.806;2023-04-03T03:53:58;2.10;99.90
62573;DHT22;48626;51.678;5.806;2023-04-03T03:56:23;2.10;99.90
62573;DHT22;48626;51.678;5.806;2023-04-03T03:58:49;2.10;99.90
62573;DHT22;48626;51.678;5.806;2023-04-03T04:01:15;2.00;99.90
62573;DHT22;48626;51.678;5.806;2023-04-03T04:03:42;2.00;99.90
62573;DHT22;48626;51.678;5.806;2023-04-03T04:06:07;2.00;99.90
62573;DHT22;48626;51.678;5.806;2023-04-03T04:08:33;2.00;99.90
62573;DHT22;48626;51.678;5.806;2023-04-03T04:10:59;1.90;99.90
62573;DHT22;48626;51.678;5.806;2023-04-03T04:13:25;1.90;99.90
62573;DHT22;48626;51.678;5.806;2023-04-03T04:15:50;1.90;99.90
62573;DHT22;48626;51.678;5.806;2023-04-03T04:18:16;1.90;99.90
62573;DHT22;48626;51.678;5.806;2023-04-03T04:20:45;1.90;99.90
62573;DHT22;48626;51.678;5.806;2023-04-03T04:23:11;1.90;99.90
62573;DHT22;48626;51.678;5.806;2023-04-03T04:25:37;1.90;99.90
62573;DHT22;48626;51.678;5.806;2023-04-03T04:28:02;1.90;99.90
62573;DHT22;48626;51.678;5.806;2023-04-03T04:30:28;1.90;99.90
62573;DHT22;48626;51.678;5.806;2023-04-03T04:32:54;1.80;99.90
62573;DHT22;48626;51.678;5.806;2023-04-03T04:35:19;1.80;99.90
62573;DHT22;48626;51.678;5.806;2023-04-03T04:37:45;1.80;99.90
62573;DHT22;48626;51.678;5.806;2023-04-03T04:40:11;1.80;99.90
62573;DHT22;48626;51.678;5.806;2023-04-03T04:42:36;1.80;99.90
62573;DHT22;48626;51.678;5.806;2023-04-03T04:45:02;1.70;99.90
62573;DHT22;48626;51.678;5.806;2023-04-03T04:47:29;1.70;99.90
62573;DHT22;48626;51.678;5.806;2023-04-03T04:49:55;1.70;99.90
62573;DHT22;48626;51.678;5.806;2023-04-03T04:52:20;1.70;99.90
62573;DHT22;48626;51.678;5.806;2023-04-03T04:54:46;1.70;99.90
62573;DHT22;48626;51.678;5.806;2023-04-03T04:57:12;1.70;99.90
62573;DHT22;48626;51.678;5.806;2023-04-03T04:59:37;1.70;99.90
62573;DHT22;48626;51.678;5.806;2023-04-03T05:02:03;1.70;99.90
62573;DHT22;48626;51.678;5.806;2023-04-03T05:04:29;1.70;99.90
62573;DHT22;48626;51.678;5.806;2023-04-03T05:06:55;1.60;99.90
62573;DHT22;48626;51.678;5.806;2023-04-03T05:09:21;1.60;99.90
62573;DHT22;48626;51.678;5.806;2023-04-03T05:11:47;1.60;99.90
62573;DHT22;48626;51.678;5.806;2023-04-03T05:14:12;1.60;99.90
62573;DHT22;48626;51.678;5.806;2023-04-03T05:16:38;1.60;99.90
62573;DHT22;48626;51.678;5.806;2023-04-03T05:19:04;1.50;99.90
62573;DHT22;48626;51.678;5.806;2023-04-03T05:21:30;1.50;99.90
62573;DHT22;48626;51.678;5.806;2023-04-03T05:24:01;1.50;99.90
62573;DHT22;48626;51.678;5.806;2023-04-03T05:26:31;1.50;99.90
62573;DHT22;48626;51.678;5.806;2023-04-03T05:28:57;1.50;99.90
62573;DHT22;48626;51.678;5.806;2023-04-03T05:31:23;1.50;99.90
62573;DHT22;48626;51.678;5.806;2023-04-03T05:33:49;1.50;99.90
62573;DHT22;48626;51.678;5.806;2023-04-03T05:36:15;1.50;99.90
62573;DHT22;48626;51.678;5.806;2023-04-03T05:38:41;1.50;99.90
62573;DHT22;48626;51.678;5.806;2023-04-03T05:41:07;1.50;99.90
62573;DHT22;48626;51.678;5.806;2023-04-03T05:43:33;1.60;99.90
62573;DHT22;48626;51.678;5.806;2023-04-03T05:46:00;1.60;99.90
62573;DHT22;48626;51.678;5.806;2023-04-03T05:48:25;1.70;99.90
62573;DHT22;48626;51.678;5.806;2023-04-03T05:50:51;1.70;99.90
62573;DHT22;48626;51.678;5.806;2023-04-03T05:53:28;1.80;99.90
62573;DHT22;48626;51.678;5.806;2023-04-03T05:55:54;1.90;99.90
62573;DHT22;48626;51.678;5.806;2023-04-03T05:58:20;1.90;99.90
62573;DHT22;48626;51.678;5.806;2023-04-03T06:00:46;2.00;99.90
62573;DHT22;48626;51.678;5.806;2023-04-03T06:03:12;2.10;99.90
62573;DHT22;48626;51.678;5.806;2023-04-03T06:05:37;2.10;99.90
62573;DHT22;48626;51.678;5.806;2023-04-03T06:08:03;2.20;99.90
62573;DHT22;48626;51.678;5.806;2023-04-03T06:10:29;2.20;99.90
62573;DHT22;48626;51.678;5.806;2023-04-03T06:12:55;2.30;99.90
62573;DHT22;48626;51.678;5.806;2023-04-03T06:15:20;2.40;99.90
62573;DHT22;48626;51.678;5.806;2023-04-03T06:17:46;2.50;99.90
62573;DHT22;48626;51.678;5.806;2023-04-03T06:20:12;2.50;99.90
62573;DHT22;48626;51.678;5.806;2023-04-03T06:22:39;2.60;99.90
62573;DHT22;48626;51.678;5.806;2023-04-03T06:25:05;2.70;99.90
62573;DHT22;48626;51.678;5.806;2023-04-03T06:27:31;2.90;99.90
62573;DHT22;48626;51.678;5.806;2023-04-03T06:29:57;3.20;99.90
62573;DHT22;48626;51.678;5.806;2023-04-03T06:32:22;3.50;99.90
62573;DHT22;48626;51.678;5.806;2023-04-03T06:34:48;3.70;99.90
62573;DHT22;48626;51.678;5.806;2023-04-03T06:37:20;3.80;99.90
62573;DHT22;48626;51.678;5.806;2023-04-03T06:39:46;3.90;99.90
62573;DHT22;48626;51.678;5.806;2023-04-03T06:42:11;4.20;99.90
62573;DHT22;48626;51.678;5.806;2023-04-03T06:44:37;4.30;99.90
62573;DHT22;48626;51.678;5.806;2023-04-03T06:47:06;4.20;99.90
62573;DHT22;48626;51.678;5.806;2023-04-03T06:49:33;4.10;99.90
62573;DHT22;48626;51.678;5.806;2023-04-03T06:51:59;4.00;99.90
62573;DHT22;48626;51.678;5.806;2023-04-03T06:54:25;4.00;99.90
62573;DHT22;48626;51.678;5.806;2023-04-03T06:56:51;3.90;99.90
62573;DHT22;48626;51.678;5.806;2023-04-03T06:59:17;3.90;99.90
62573;DHT22;48626;51.678;5.806;2023-04-03T07:01:43;3.90;99.90
62573;DHT22;48626;51.678;5.806;2023-04-03T07:04:09;3.90;99.90
62573;DHT22;48626;51.678;5.806;2023-04-03T07:06:35;3.90;99.90
62573;DHT22;48626;51.678;5.806;2023-04-03T07:09:02;3.90;99.90
62573;DHT22;48626;51.678;5.806;2023-04-03T07:11:28;3.90;99.90
62573;DHT22;48626;51.678;5.806;2023-04-03T07:13:53;4.00;99.90
62573;DHT22;48626;51.678;5.806;2023-04-03T07:16:19;4.10;99.90
62573;DHT22;48626;51.678;5.806;2023-04-03T07:18:45;4.10;99.90
62573;DHT22;48626;51.678;5.806;2023-04-03T07:21:11;4.20;99.90
62573;DHT22;48626;51.678;5.806;2023-04-03T07:23:37;4.20;99.90
62573;DHT22;48626;51.678;5.806;2023-04-03T07:26:03;4.30;99.90
62573;DHT22;48626;51.678;5.806;2023-04-03T07:28:29;4.30;99.90
62573;DHT22;48626;51.678;5.806;2023-04-03T07:31:07;4.40;99.90
62573;DHT22;48626;51.678;5.806;2023-04-03T07:33:34;4.40;99.90
62573;DHT22;48626;51.678;5.806;2023-04-03T07:36:01;4.40;99.90
62573;DHT22;48626;51.678;5.806;2023-04-03T07:38:27;4.50;99.90
62573;DHT22;48626;51.678;5.806;2023-04-03T07:40:53;4.60;99.90
62573;DHT22;48626;51.678;5.806;2023-04-03T07:43:20;4.70;99.90
62573;DHT22;48626;51.678;5.806;2023-04-03T07:45:47;4.80;99.90
62573;DHT22;48626;51.678;5.806;2023-04-03T07:48:17;4.80;99.90
62573;DHT22;48626;51.678;5.806;2023-04-03T07:50:43;4.90;99.90
62573;DHT22;48626;51.678;5.806;2023-04-03T07:53:10;5.00;99.90
62573;DHT22;48626;51.678;5.806;2023-04-03T07:55:36;5.10;99.90
62573;DHT22;48626;51.678;5.806;2023-04-03T07:58:12;5.10;99.90
62573;DHT22;48626;51.678;5.806;2023-04-03T08:00:38;5.20;99.90
62573;DHT22;48626;51.678;5.806;2023-04-03T08:03:05;5.30;99.90
62573;DHT22;48626;51.678;5.806;2023-04-03T08:05:36;5.40;99.90
62573;DHT22;48626;51.678;5.806;2023-04-03T08:08:02;5.40;99.90
62573;DHT22;48626;51.678;5.806;2023-04-03T08:10:30;5.50;99.90
62573;DHT22;48626;51.678;5.806;2023-04-03T08:12:56;5.60;99.90
62573;DHT22;48626;51.678;5.806;2023-04-03T08:15:21;5.70;99.90
62573;DHT22;48626;51.678;5.806;2023-04-03T08:17:47;5.80;99.90
62573;DHT22;48626;51.678;5.806;2023-04-03T08:20:13;5.80;99.90
62573;DHT22;48626;51.678;5.806;2023-04-03T08:22:39;5.90;99.90
62573;DHT22;48626;51.678;5.806;2023-04-03T08:25:05;6.00;99.90
62573;DHT22;48626;51.678;5.806;2023-04-03T08:27:31;6.00;99.90
62573;DHT22;48626;51.678;5.806;2023-04-03T08:29:57;6.10;99.90
62573;DHT22;48626;51.678;5.806;2023-04-03T08:32:22;6.20;99.90
62573;DHT22;48626;51.678;5.806;2023-04-03T08:34:48;6.30;99.90
62573;DHT22;48626;51.678;5.806;2023-04-03T08:37:14;6.30;99.90
62573;DHT22;48626;51.678;5.806;2023-04-03T08:39:42;6.50;99.90
62573;DHT22;48626;51.678;5.806;2023-04-03T08:47:55;6.60;99.90
62573;DHT22;48626;51.678;5.806;2023-04-03T08:50:56;6.70;99.90
62573;DHT22;48626;51.678;5.806;2023-04-03T08:53:27;6.90;99.90
62573;DHT22;48626;51.678;5.806;2023-04-03T08:55:55;7.00;99.90
62573;DHT22;48626;51.678;5.806;2023-04-03T08:58:23;7.10;99.90
62573;DHT22;48626;51.678;5.806;2023-04-03T09:00:51;7.20;99.90
62573;DHT22;48626;51.678;5.806;2023-04-03T09:03:21;7.20;99.90
62573;DHT22;48626;51.678;5.806;2023-04-03T09:06:00;7.30;99.90
62573;DHT22;48626;51.678;5.806;2023-04-03T09:12:17;7.40;99.90
62573;DHT22;48626;51.678;5.806;2023-04-03T09:23:24;7.80;99.90
62573;DHT22;48626;51.678;5.806;2023-04-03T09:26:08;7.90;99.90
62573;DHT22;48626;51.678;5.806;2023-04-03T09:28:38;8.00;99.90
62573;DHT22;48626;51.678;5.806;2023-04-03T09:31:50;8.10;99.90
62573;DHT22;48626;51.678;5.806;2023-04-03T09:36:50;8.30;99.90
62573;DHT22;48626;51.678;5.806;2023-04-03T09:39:26;8.30;99.90
62573;DHT22;48626;51.678;5.806;2023-04-03T09:42:01;8.40;99.90
62573;DHT22;48626;51.678;5.806;2023-04-03T09:44:32;8.50;99.90
62573;DHT22;48626;51.678;5.806;2023-04-03T09:46:59;8.50;99.90
62573;DHT22;48626;51.678;5.806;2023-04-03T09:49:42;8.50;99.90
62573;DHT22;48626;51.678;5.806;2023-04-03T09:52:25;8.60;99.90
62573;DHT22;48626;51.678;5.806;2023-04-03T09:54:51;8.70;99.90
62573;DHT22;48626;51.678;5.806;2023-04-03T09:57:17;8.80;99.90
62573;DHT22;48626;51.678;5.806;2023-04-03T10:00:00;8.80;99.90
62573;DHT22;48626;51.678;5.806;2023-04-03T10:02:38;8.90;99.90
62573;DHT22;48626;51.678;5.806;2023-04-03T10:10:37;9.50;99.90
62573;DHT22;48626;51.678;5.806;2023-04-03T10:13:18;9.80;99.90
62573;DHT22;48626;51.678;5.806;2023-04-03T10:16:12;10.10;99.90
62573;DHT22;48626;51.678;5.806;2023-04-03T10:18:44;10.40;99.90
62573;DHT22;48626;51.678;5.806;2023-04-03T10:24:14;10.70;99.90
62573;DHT22;48626;51.678;5.806;2023-04-03T10:29:34;10.80;99.90
62573;DHT22;48626;51.678;5.806;2023-04-03T10:35:12;11.30;99.90
62573;DHT22;48626;51.678;5.806;2023-04-03T10:37:53;11.70;99.90
62573;DHT22;48626;51.678;5.806;2023-04-03T10:40:45;12.10;99.90
62573;DHT22;48626;51.678;5.806;2023-04-03T10:43:17;12.30;99.90
62573;DHT22;48626;51.678;5.806;2023-04-03T10:46:03;12.50;99.90
62573;DHT22;48626;51.678;5.806;2023-04-03T10:48:45;12.60;99.90
62573;DHT22;48626;51.678;5.806;2023-04-03T10:51:22;12.80;99.90
62573;DHT22;48626;51.678;5.806;2023-04-03T10:59:12;13.30;99.90
62573;DHT22;48626;51.678;5.806;2023-04-03T11:01:42;13.30;99.90
62573;DHT22;48626;51.678;5.806;2023-04-03T11:04:10;13.50;99.90
62573;DHT22;48626;51.678;5.806;2023-04-03T11:06:45;13.50;99.90
62573;DHT22;48626;51.678;5.806;2023-04-03T11:12:10;13.90;99.90
62573;DHT22;48626;51.678;5.806;2023-04-03T11:14:38;14.20;99.90
62573;DHT22;48626;51.678;5.806;2023-04-03T11:22:42;14.90;99.90
62573;DHT22;48626;51.678;5.806;2023-04-03T11:27:49;15.60;99.90
62573;DHT22;48626;51.678;5.806;2023-04-03T11:30:21;15.70;99.90
62573;DHT22;48626;51.678;5.806;2023-04-03T11:35:54;15.90;99.90
62573;DHT22;48626;51.678;5.806;2023-04-03T11:38:22;16.40;99.90
62573;DHT22;48626;51.678;5.806;2023-04-03T11:40:49;16.70;99.90
62573;DHT22;48626;51.678;5.806;2023-04-03T11:43:26;16.60;99.90
62573;DHT22;48626;51.678;5.806;2023-04-03T11:50:58;17.00;99.90
62573;DHT22;48626;51.678;5.806;2023-04-03T11:53:35;17.20;99.90
62573;DHT22;48626;51.678;5.806;2023-04-03T11:56:04;17.30;99.90
62573;DHT22;48626;51.678;5.806;2023-04-03T11:58:34;17.20;99.90
62573;DHT22;48626;51.678;5.806;2023-04-03T12:01:10;17.60;99.90
62573;DHT22;48626;51.678;5.806;2023-04-03T12:21:24;18.90;99.90
62573;DHT22;48626;51.678;5.806;2023-04-03T12:27:02;18.90;99.90
62573;DHT22;48626;51.678;5.806;2023-04-03T12:29:36;19.00;99.90
62573;DHT22;48626;51.678;5.806;2023-04-03T12:46:08;20.10;99.90
62573;DHT22;48626;51.678;5.806;2023-04-03T12:48:50;20.30;99.90
62573;DHT22;48626;51.678;5.806;2023-04-03T12:51:31;20.50;99.90
62573;DHT22;48626;51.678;5.806;2023-04-03T12:54:12;20.60;99.90
62573;DHT22;48626;51.678;5.806;2023-04-03T12:56:39;20.70;99.90
62573;DHT22;48626;51.678;5.806;2023-04-03T12:59:19;20.90;99.90
62573;DHT22;48626;51.678;5.806;2023-04-03T13:01:54;20.80;99.90
62573;DHT22;48626;51.678;5.806;2023-04-03T13:04:21;21.00;99.90
62573;DHT22;48626;51.678;5.806;2023-04-03T13:06:47;21.10;99.90
62573;DHT22;48626;51.678;5.806;2023-04-03T13:09:27;21.00;99.90
62573;DHT22;48626;51.678;5.806;2023-04-03T13:12:13;21.40;99.90
62573;DHT22;48626;51.678;5.806;2023-04-03T13:14:39;21.70;99.90
62573;DHT22;48626;51.678;5.806;2023-04-03T13:17:16;21.50;99.90
62573;DHT22;48626;51.678;5.806;2023-04-03T13:19:43;21.70;99.90
62573;DHT22;48626;51.678;5.806;2023-04-03T13:24:50;21.10;99.90
62573;DHT22;48626;51.678;5.806;2023-04-03T13:27:17;21.10;99.90
62573;DHT22;48626;51.678;5.806;2023-04-03T13:29:43;20.40;99.90
62573;DHT22;48626;51.678;5.806;2023-04-03T13:32:21;20.30;99.90
62573;DHT22;48626;51.678;5.806;2023-04-03T13:34:48;20.20;99.90
62573;DHT22;48626;51.678;5.806;2023-04-03T13:37:22;20.10;99.90
62573;DHT22;48626;51.678;5.806;2023-04-03T13:40:03;19.80;99.90
62573;DHT22;48626;51.678;5.806;2023-04-03T13:42:38;19.60;99.90
62573;DHT22;48626;51.678;5.806;2023-04-03T13:47:40;19.50;99.90
62573;DHT22;48626;51.678;5.806;2023-04-03T13:52:54;19.60;99.90
62573;DHT22;48626;51.678;5.806;2023-04-03T13:55:30;19.70;99.90
62573;DHT22;48626;51.678;5.806;2023-04-03T13:58:21;19.10;99.90
62573;DHT22;48626;51.678;5.806;2023-04-03T14:03:45;18.50;99.90
62573;DHT22;48626;51.678;5.806;2023-04-03T14:06:16;18.60;99.90
62573;DHT22;48626;51.678;5.806;2023-04-03T14:08:45;18.30;99.90
62573;DHT22;48626;51.678;5.806;2023-04-03T14:11:33;18.40;99.90
62573;DHT22;48626;51.678;5.806;2023-04-03T14:14:02;18.10;99.90
62573;DHT22;48626;51.678;5.806;2023-04-03T14:16:33;17.50;99.90
62573;DHT22;48626;51.678;5.806;2023-04-03T14:19:03;17.30;99.90
62573;DHT22;48626;51.678;5.806;2023-04-03T14:21:29;17.50;99.90
62573;DHT22;48626;51.678;5.806;2023-04-03T14:23:55;17.20;99.90
62573;DHT22;48626;51.678;5.806;2023-04-03T14:26:23;17.00;99.90
62573;DHT22;48626;51.678;5.806;2023-04-03T14:28:51;16.50;99.90
62573;DHT22;48626;51.678;5.806;2023-04-03T14:31:18;16.70;99.90
62573;DHT22;48626;51.678;5.806;2023-04-03T14:33:45;16.60;99.90
62573;DHT22;48626;51.678;5.806;2023-04-03T14:36:16;16.30;99.90
62573;DHT22;48626;51.678;5.806;2023-04-03T14:38:43;15.90;99.90
62573;DHT22;48626;51.678;5.806;2023-04-03T14:41:14;15.60;99.90
62573;DHT22;48626;51.678;5.806;2023-04-03T14:43:41;15.70;99.90
62573;DHT22;48626;51.678;5.806;2023-04-03T14:46:24;15.60;99.90
62573;DHT22;48626;51.678;5.806;2023-04-03T14:48:52;15.60;99.90
62573;DHT22;48626;51.678;5.806;2023-04-03T14:51:17;16.50;99.90
62573;DHT22;48626;51.678;5.806;2023-04-03T14:53:44;17.20;99.90
62573;DHT22;48626;51.678;5.806;2023-04-03T14:56:21;17.60;99.90
62573;DHT22;48626;51.678;5.806;2023-04-03T14:58:49;18.30;99.90
62573;DHT22;48626;51.678;5.806;2023-04-03T15:01:17;18.90;99.90
62573;DHT22;48626;51.678;5.806;2023-04-03T15:03:42;18.80;99.90
62573;DHT22;48626;51.678;5.806;2023-04-03T15:06:13;18.20;99.90
62573;DHT22;48626;51.678;5.806;2023-04-03T15:08:39;17.00;99.90
62573;DHT22;48626;51.678;5.806;2023-04-03T15:11:08;16.10;99.90
62573;DHT22;48626;51.678;5.806;2023-04-03T15:13:34;15.30;99.90
62573;DHT22;48626;51.678;5.806;2023-04-03T15:15:59;14.70;99.90
62573;DHT22;48626;51.678;5.806;2023-04-03T15:18:27;14.30;99.90
62573;DHT22;48626;51.678;5.806;2023-04-03T15:20:56;13.90;99.90
62573;DHT22;48626;51.678;5.806;2023-04-03T15:23:22;13.60;99.90
62573;DHT22;48626;51.678;5.806;2023-04-03T15:25:52;13.50;99.90
62573;DHT22;48626;51.678;5.806;2023-04-03T15:28:32;13.30;99.90
62573;DHT22;48626;51.678;5.806;2023-04-03T15:30:58;13.00;99.90
62573;DHT22;48626;51.678;5.806;2023-04-03T15:33:25;12.90;99.90
62573;DHT22;48626;51.678;5.806;2023-04-03T15:35:51;12.60;99.90
62573;DHT22;48626;51.678;5.806;2023-04-03T15:38:17;12.40;99.90
62573;DHT22;48626;51.678;5.806;2023-04-03T15:40:42;12.20;99.90
62573;DHT22;48626;51.678;5.806;2023-04-03T15:43:09;12.10;99.90
62573;DHT22;48626;51.678;5.806;2023-04-03T15:45:37;12.00;99.90
62573;DHT22;48626;51.678;5.806;2023-04-03T15:48:04;11.90;99.90
62573;DHT22;48626;51.678;5.806;2023-04-03T15:50:31;11.70;99.90
62573;DHT22;48626;51.678;5.806;2023-04-03T15:52:57;11.70;99.90
62573;DHT22;48626;51.678;5.806;2023-04-03T15:55:28;11.60;99.90
62573;DHT22;48626;51.678;5.806;2023-04-03T15:57:55;11.60;99.90
62573;DHT22;48626;51.678;5.806;2023-04-03T16:00:22;11.50;99.90
62573;DHT22;48626;51.678;5.806;2023-04-03T16:02:52;11.50;99.90
62573;DHT22;48626;51.678;5.806;2023-04-03T16:05:19;11.40;99.90
62573;DHT22;48626;51.678;5.806;2023-04-03T16:07:45;11.30;99.90
62573;DHT22;48626;51.678;5.806;2023-04-03T16:10:13;11.20;99.90
62573;DHT22;48626;51.678;5.806;2023-04-03T16:12:39;11.10;99.90
62573;DHT22;48626;51.678;5.806;2023-04-03T16:15:06;11.00;99.90
62573;DHT22;48626;51.678;5.806;2023-04-03T16:17:33;11.00;99.90
62573;DHT22;48626;51.678;5.806;2023-04-03T16:20:00;10.90;99.90
62573;DHT22;48626;51.678;5.806;2023-04-03T16:22:27;10.90;99.90
62573;DHT22;48626;51.678;5.806;2023-04-03T16:24:54;10.80;99.90
62573;DHT22;48626;51.678;5.806;2023-04-03T16:27:20;10.80;99.90
62573;DHT22;48626;51.678;5.806;2023-04-03T16:29:46;10.80;99.90
62573;DHT22;48626;51.678;5.806;2023-04-03T16:32:12;10.80;99.90
62573;DHT22;48626;51.678;5.806;2023-04-03T16:34:38;10.70;99.90
62573;DHT22;48626;51.678;5.806;2023-04-03T16:37:06;10.70;99.90
62573;DHT22;48626;51.678;5.806;2023-04-03T16:39:34;10.70;99.90
62573;DHT22;48626;51.678;5.806;2023-04-03T16:42:00;10.70;99.90
62573;DHT22;48626;51.678;5.806;2023-04-03T16:44:26;10.60;99.90
62573;DHT22;48626;51.678;5.806;2023-04-03T16:46:52;10.50;99.90
62573;DHT22;48626;51.678;5.806;2023-04-03T16:49:18;10.40;99.90
62573;DHT22;48626;51.678;5.806;2023-04-03T16:51:43;10.40;99.90
62573;DHT22;48626;51.678;5.806;2023-04-03T16:54:11;10.30;99.90
62573;DHT22;48626;51.678;5.806;2023-04-03T16:56:39;10.30;99.90
62573;DHT22;48626;51.678;5.806;2023-04-03T16:59:08;10.20;99.90
62573;DHT22;48626;51.678;5.806;2023-04-03T17:01:34;10.20;99.90
62573;DHT22;48626;51.678;5.806;2023-04-03T17:04:00;10.10;99.90
62573;DHT22;48626;51.678;5.806;2023-04-03T17:06:26;10.00;99.90
62573;DHT22;48626;51.678;5.806;2023-04-03T17:08:52;9.90;99.90
62573;DHT22;48626;51.678;5.806;2023-04-03T17:11:18;9.80;99.90
62573;DHT22;48626;51.678;5.806;2023-04-03T17:13:43;9.70;99.90
62573;DHT22;48626;51.678;5.806;2023-04-03T17:16:13;9.70;99.90
62573;DHT22;48626;51.678;5.806;2023-04-03T17:18:40;9.60;99.90
62573;DHT22;48626;51.678;5.806;2023-04-03T17:21:06;9.60;99.90
62573;DHT22;48626;51.678;5.806;2023-04-03T17:23:33;9.60;99.90
62573;DHT22;48626;51.678;5.806;2023-04-03T17:26:01;9.50;99.90
62573;DHT22;48626;51.678;5.806;2023-04-03T17:28:26;9.50;99.90
62573;DHT22;48626;51.678;5.806;2023-04-03T17:30:58;9.40;99.90
62573;DHT22;48626;51.678;5.806;2023-04-03T17:33:24;9.40;99.90
62573;DHT22;48626;51.678;5.806;2023-04-03T17:35:50;9.30;99.90
62573;DHT22;48626;51.678;5.806;2023-04-03T17:38:16;9.30;99.90
62573;DHT22;48626;51.678;5.806;2023-04-03T17:40:42;9.20;99.90
62573;DHT22;48626;51.678;5.806;2023-04-03T17:43:09;9.20;99.90